Portada
METAR-TAF:

METAR-TAF

Aeroports :

Rasht, Iran

latitud: 37-12N, longitud: 049-38E, altitud: -7 m

Observació

L'informe es va fer fa 3 hores i 42 minuts, a les 19:00 UTC
Vent calma
Temperatura 5°C
Humitat 93%
Pressió 1029 hPa
Visibilitat: 4000 m
boirina

METAR: OIGG 181900Z 00000KT 4000 BR NSC 05/04 Q1029

Hora: 02:12 (22:42 UTC)


TAF: manca

Observacions i pronòstics meteorològics de més de 4000 aeroports (METAR i TAF).

Les estacions disponibles són els punts grocs i vermells al mapa.

Posi el ratolí al punt desitjat per veure el nom de l'estació.

Feu clic per veure les observacions i els pronòstics meteorològics.

Per canviar el mapa: feu clic els botons verds amb una creu de color negre per apropar; al botó verd amb un guió per allunyar la imatge; o en les fletxes verdes per a mapes adjacents.


METAR-TAF: